Time;durP1;ratioP1;P1;durP2;ratioP2;P2;SDS_P1;SDS_P2;PMS_P1;PMS_P2;Temp;Humidity;BMP_temperature;BMP_pressure;BME280_temperature;BME280_humidity;BME280_pressure;Samples;Min_cycle;Max_cycle;Signal;HPM_P1;HPM_P2
2022/08/26 00:02:15;;;;;;;;;;;;;;;;;;2191516;59;1595;-63
2022/08/26 00:04:48;;;;;;;;;;;;;;;;;;2191284;59;1244;-64
2022/08/26 00:07:21;;;;;;;;;;;;;;;;;;2191421;67;1146;-62
2022/08/26 00:09:54;;;;;;;;;;;;;;;;;;2191381;59;1936;-64
2022/08/26 00:12:27;;;;;;;;;;;;;;;;;;2191228;59;1243;-63
2022/08/26 00:15:00;;;;;;;;;;;;;;;;;;2191417;67;1598;-61
2022/08/26 00:17:36;;;;;;;;;;;;;;;;;;2191722;67;1191;-63
2022/08/26 00:20:11;;;;;;;;;;;;;;;;;;2191540;67;1291;-63
2022/08/26 00:22:44;;;;;;;;;;;;;;;;;;2191388;67;1243;-63
2022/08/26 00:25:18;;;;;;;;;;;;;;;;;;2191376;67;1266;-63
2022/08/26 00:27:51;;;;;;;;;;;;;;;;;;2191063;67;1168;-62
2022/08/26 00:30:25;;;;;;;;;;;;;;;;;;2191080;59;1938;-63
2022/08/26 00:33:01;;;;;;;;;;;;;;;;;;2191302;67;1143;-63
2022/08/26 00:35:35;;;;;;;;;;;;;;;;;;2191192;59;1322;-63
2022/08/26 00:38:08;;;;;;;;;;;;;;;;;;2191409;59;1760;-63
2022/08/26 00:40:44;;;;;;;;;;;;;;;;;;2191047;67;1200;-63
2022/08/26 00:43:18;;;;;;;;;;;;;;;;;;2191304;59;1220;-63
2022/08/26 00:45:56;;;;;;;;;;;;;;;;;;2191215;67;1214;-62
2022/08/26 00:48:34;;;;;;;;;;;;;;;;;;2191461;67;1081;-64
2022/08/26 00:51:08;;;;;;;;;;;;;;;;;;2190898;67;1976;-63
2022/08/26 00:53:45;;;;;;;;;;;;;;;;;;2190786;59;1294;-61
2022/08/26 00:56:22;;;;;;;;;;;;;;;;;;2191073;67;1148;-64
2022/08/26 00:58:56;;;;;;;;;;;;;;;;;;2190959;67;1092;-64
2022/08/26 01:01:30;;;;;;;;;;;;;;;;;;2191392;59;1635;-63
2022/08/26 01:04:06;;;;;;;;;;;;;;;;;;2190868;59;1447;-63
2022/08/26 01:06:39;;;;;;;;;;;;;;;;;;2191668;67;1266;-63
2022/08/26 01:09:13;;;;;;;;;;;;;;;;;;2191693;59;1241;-64
2022/08/26 01:11:46;;;;;;;;;;;;;;;;;;2190734;59;1937;-63
2022/08/26 01:14:21;;;;;;;;;;;;;;;;;;2191180;67;1619;-63
2022/08/26 01:16:54;;;;;;;;;;;;;;;;;;2191320;67;1139;-63
2022/08/26 01:19:33;;;;;;;;;;;;;;;;;;2191001;67;1188;-64
2022/08/26 01:22:09;;;;;;;;;;;;;;;;;;2191128;67;1076;-63
2022/08/26 01:24:45;;;;;;;;;;;;;;;;;;2190983;67;1277;-62
2022/08/26 01:27:20;;;;;;;;;;;;;;;;;;2191146;67;1222;-64
2022/08/26 01:29:54;;;;;;;;;;;;;;;;;;2191175;67;1948;-63
2022/08/26 01:32:27;;;;;;;;;;;;;;;;;;2191414;59;1449;-63
2022/08/26 01:35:00;;;;;;;;;;;;;;;;;;2190967;67;1269;-63
2022/08/26 01:37:36;;;;;;;;;;;;;;;;;;2191081;59;1888;-64
2022/08/26 01:40:15;;;;;;;;;;;;;;;;;;2190957;67;1114;-63
2022/08/26 01:42:48;;;;;;;;;;;;;;;;;;2191178;59;1115;-63
2022/08/26 01:45:24;;;;;;;;;;;;;;;;;;2191186;67;1189;-64
2022/08/26 01:47:59;;;;;;;;;;;;;;;;;;2205830;67;1214;-63
2022/08/26 01:50:35;;;;;;;;;;;;;;;;;;2190246;67;1971;-64
2022/08/26 01:53:09;;;;;;;;;;;;;;;;;;2190945;59;1298;-61
2022/08/26 01:55:48;;;;;;;;;;;;;;;;;;2190764;67;1533;-63
2022/08/26 01:58:24;;;;;;;;;;;;;;;;;;2191071;67;1160;-64
2022/08/26 02:00:57;;;;;;;;;;;;;;;;;;2191025;67;1089;-63
2022/08/26 02:03:31;;;;;;;;;;;;;;;;;;2190753;59;2004;-63
2022/08/26 02:06:06;;;;;;;;;;;;;;;;;;2191099;67;1234;-64
2022/08/26 02:08:41;;;;;;;;;;;;;;;;;;2190942;67;1259;-63
2022/08/26 02:11:18;;;;;;;;;;;;;;;;;;2191336;59;1935;-64
2022/08/26 02:13:53;;;;;;;;;;;;;;;;;;2190864;67;1242;-64
2022/08/26 02:16:30;;;;;;;;;;;;;;;;;;2190923;67;1192;-63
2022/08/26 02:19:04;;;;;;;;;;;;;;;;;;2191039;67;1079;-62
2022/08/26 02:21:37;;;;;;;;;;;;;;;;;;2190576;67;1325;-63
2022/08/26 02:24:12;;;;;;;;;;;;;;;;;;2191161;67;1237;-63
2022/08/26 02:26:49;;;;;;;;;;;;;;;;;;2190524;67;1721;-62
2022/08/26 02:29:25;;;;;;;;;;;;;;;;;;2191113;67;1150;-60
2022/08/26 02:31:58;;;;;;;;;;;;;;;;;;2191076;59;2350;-62
2022/08/26 02:34:33;;;;;;;;;;;;;;;;;;2190687;67;1240;-59
2022/08/26 02:37:08;;;;;;;;;;;;;;;;;;2191296;59;1386;-63
2022/08/26 02:39:42;;;;;;;;;;;;;;;;;;2190655;67;1227;-62
2022/08/26 02:42:18;;;;;;;;;;;;;;;;;;2191453;67;1139;-62
2022/08/26 02:44:51;;;;;;;;;;;;;;;;;;2190818;67;1219;-64
2022/08/26 02:47:24;;;;;;;;;;;;;;;;;;2191118;67;1180;-64
2022/08/26 02:49:57;;;;;;;;;;;;;;;;;;2190777;67;1111;-63
2022/08/26 02:52:31;;;;;;;;;;;;;;;;;;2190384;67;1926;-63
2022/08/26 03:05:47;;;;;;;;;;;;;;;;;;2241579;54;2118;-53
2022/08/26 03:08:21;;;;;;;;;;;;;;;;;;2196008;59;1412;-54
2022/08/26 03:10:54;;;;;;;;;;;;;;;;;;2195747;59;1979;-54
2022/08/26 03:13:27;;;;;;;;;;;;;;;;;;2194993;59;1401;-54
2022/08/26 03:16:01;;;;;;;;;;;;;;;;;;2194788;67;1155;-56
2022/08/26 03:18:35;;;;;;;;;;;;;;;;;;2195639;67;1402;-52
2022/08/26 03:21:12;;;;;;;;;;;;;;;;;;2195396;59;1268;-55
2022/08/26 03:23:46;;;;;;;;;;;;;;;;;;2195996;59;1205;-53
2022/08/26 03:26:19;;;;;;;;;;;;;;;;;;2195568;67;1246;-53
2022/08/26 03:31:41;;;;;;;;;;;;;;;;;;2196028;67;1919;-53
2022/08/26 03:34:14;;;;;;;;;;;;;;;;;;2195869;67;1226;-55
2022/08/26 03:36:51;;;;;;;;;;;;;;;;;;2195667;59;1376;-53
2022/08/26 03:39:24;;;;;;;;;;;;;;;;;;2196428;59;1621;-53
2022/08/26 03:41:57;;;;;;;;;;;;;;;;;;2195842;67;1099;-53
2022/08/26 03:44:30;;;;;;;;;;;;;;;;;;2195604;59;1244;-55
2022/08/26 03:47:04;;;;;;;;;;;;;;;;;;2195704;67;1124;-53
2022/08/26 03:49:37;;;;;;;;;;;;;;;;;;2195520;67;1100;-55
2022/08/26 03:52:13;;;;;;;;;;;;;;;;;;2195650;67;1963;-54
2022/08/26 03:54:46;;;;;;;;;;;;;;;;;;2194650;67;3232;-55
2022/08/26 03:57:19;;;;;;;;;;;;;;;;;;2195547;67;1171;-53
2022/08/26 03:59:52;;;;;;;;;;;;;;;;;;2195568;67;1065;-54
2022/08/26 04:02:26;;;;;;;;;;;;;;;;;;2195816;59;2267;-53
2022/08/26 04:04:59;;;;;;;;;;;;;;;;;;2195370;59;1280;-52
2022/08/26 04:07:35;;;;;;;;;;;;;;;;;;2195380;67;1021;-53
2022/08/26 04:10:09;;;;;;;;;;;;;;;;;;2195545;59;1303;-53
2022/08/26 04:12:42;;;;;;;;;;;;;;;;;;2195985;59;1989;-54
2022/08/26 04:15:16;;;;;;;;;;;;;;;;;;2195727;59;2348;-55
2022/08/26 04:17:50;;;;;;;;;;;;;;;;;;2196033;67;1181;-53
2022/08/26 04:20:23;;;;;;;;;;;;;;;;;;2195946;59;1272;-51
2022/08/26 04:22:59;;;;;;;;;;;;;;;;;;2195667;59;1421;-54
2022/08/26 04:25:32;;;;;;;;;;;;;;;;;;2195183;67;1271;-53
2022/08/26 04:28:05;;;;;;;;;;;;;;;;;;2195596;67;1185;-54
2022/08/26 04:30:38;;;;;;;;;;;;;;;;;;2195443;67;1080;-53
2022/08/26 04:33:12;;;;;;;;;;;;;;;;;;2195792;59;1924;-53
2022/08/26 04:35:45;;;;;;;;;;;;;;;;;;2195629;59;1414;-55
2022/08/26 04:38:22;;;;;;;;;;;;;;;;;;2196155;59;1590;-54
2022/08/26 04:40:56;;;;;;;;;;;;;;;;;;2195914;59;1247;-58
2022/08/26 04:43:30;;;;;;;;;;;;;;;;;;2195780;59;1262;-53
2022/08/26 04:46:04;;;;;;;;;;;;;;;;;;2195265;67;1287;-53
2022/08/26 04:48:37;;;;;;;;;;;;;;;;;;2194806;67;1192;-54
2022/08/26 04:51:11;;;;;;;;;;;;;;;;;;2195356;67;1980;-54
2022/08/26 04:53:46;;;;;;;;;;;;;;;;;;2195452;67;1086;-53
2022/08/26 04:56:20;;;;;;;;;;;;;;;;;;2195507;67;1251;-52
2022/08/26 04:58:53;;;;;;;;;;;;;;;;;;2195481;67;1088;-53
2022/08/26 05:01:26;;;;;;;;;;;;;;;;;;2195282;59;1771;-53
2022/08/26 05:04:00;;;;;;;;;;;;;;;;;;2195485;59;1327;-53
2022/08/26 05:06:33;;;;;;;;;;;;;;;;;;2195236;67;1229;-52
2022/08/26 05:09:09;;;;;;;;;;;;;;;;;;2195369;59;1228;-54
2022/08/26 05:11:42;;;;;;;;;;;;;;;;;;2195188;59;1922;-53
2022/08/26 05:14:16;;;;;;;;;;;;;;;;;;2195489;67;1281;-53
2022/08/26 05:16:49;;;;;;;;;;;;;;;;;;2195689;67;1867;-56
2022/08/26 05:19:23;;;;;;;;;;;;;;;;;;2195753;67;1206;-54
2022/08/26 05:21:56;;;;;;;;;;;;;;;;;;2195568;67;1069;-53
2022/08/26 05:24:32;;;;;;;;;;;;;;;;;;2195958;59;1213;-53
2022/08/26 05:27:06;;;;;;;;;;;;;;;;;;2193657;67;1811;-55
2022/08/26 05:29:39;;;;;;;;;;;;;;;;;;2195294;67;1158;-53
2022/08/26 05:32:12;;;;;;;;;;;;;;;;;;2195891;67;1991;-53
2022/08/26 05:34:45;;;;;;;;;;;;;;;;;;2195574;67;1259;-53
2022/08/26 05:37:19;;;;;;;;;;;;;;;;;;2195738;59;1738;-53
2022/08/26 05:39:54;;;;;;;;;;;;;;;;;;2195731;67;1250;-53
2022/08/26 05:42:28;;;;;;;;;;;;;;;;;;2195550;67;1214;-53
2022/08/26 05:45:01;;;;;;;;;;;;;;;;;;2195553;67;1222;-55
2022/08/26 05:47:34;;;;;;;;;;;;;;;;;;2195904;67;1227;-54
2022/08/26 05:50:08;;;;;;;;;;;;;;;;;;2195672;67;1344;-53
2022/08/26 05:52:41;;;;;;;;;;;;;;;;;;2195830;67;1933;-53
2022/08/26 05:55:17;;;;;;;;;;;;;;;;;;2196080;67;1266;-53
2022/08/26 05:57:50;;;;;;;;;;;;;;;;;;2196507;67;2215;-52
2022/08/26 06:00:23;;;;;;;;;;;;;;;;;;2196010;67;1235;-54
2022/08/26 06:02:57;;;;;;;;;;;;;;;;;;2195732;59;1579;-54
2022/08/26 06:05:30;;;;;;;;;;;;;;;;;;2195639;59;1341;-53
2022/08/26 06:10:56;;;;;;;;;;;;;;;;;;2197105;59;1631;-53
2022/08/26 06:13:30;;;;;;;;;;;;;;;;;;2195356;67;1942;-53
2022/08/26 06:16:05;;;;;;;;;;;;;;;;;;2195471;67;1157;-55
2022/08/26 06:18:39;;;;;;;;;;;;;;;;;;2194963;67;1240;-54
2022/08/26 06:21:14;;;;;;;;;;;;;;;;;;2195277;67;1565;-53
2022/08/26 06:26:40;;;;;;;;;;;;;;;;;;2194952;67;1432;-52
2022/08/26 06:29:13;;;;;;;;;;;;;;;;;;2194589;59;2386;-56
2022/08/26 06:31:47;;;;;;;;;;;;;;;;;;2193849;59;1938;-53
2022/08/26 06:34:20;;;;;;;;;;;;;;;;;;2193919;59;2424;-52
2022/08/26 06:36:53;;;;;;;;;;;;;;;;;;2193681;59;2341;-53
2022/08/26 06:39:26;;;;;;;;;;;;;;;;;;2193792;59;1664;-56
2022/08/26 06:42:03;;;;;;;;;;;;;;;;;;2195332;59;1547;-52
2022/08/26 06:44:36;;;;;;;;;;;;;;;;;;2193273;59;2200;-55
2022/08/26 06:47:09;;;;;;;;;;;;;;;;;;2195358;67;1155;-54
2022/08/26 06:49:42;;;;;;;;;;;;;;;;;;2194933;59;1305;-53
2022/08/26 06:52:16;;;;;;;;;;;;;;;;;;2195824;67;1938;-54
2022/08/26 06:54:49;;;;;;;;;;;;;;;;;;2195805;60;1230;-54
2022/08/26 06:57:25;;;;;;;;;;;;;;;;;;2196160;59;1231;-55
2022/08/26 06:59:58;;;;;;;;;;;;;;;;;;2195483;67;1100;-55
2022/08/26 07:02:31;;;;;;;;;;;;;;;;;;2196730;59;1616;-55
2022/08/26 07:05:04;;;;;;;;;;;;;;;;;;2196050;59;1279;-53
2022/08/26 07:07:37;;;;;;;;;;;;;;;;;;2195663;67;1251;-54
2022/08/26 07:10:11;;;;;;;;;;;;;;;;;;2193351;67;1298;-53
2022/08/26 07:12:47;;;;;;;;;;;;;;;;;;2195804;59;2008;-53
2022/08/26 07:15:21;;;;;;;;;;;;;;;;;;2195760;59;1398;-55
2022/08/26 07:17:54;;;;;;;;;;;;;;;;;;2195523;67;1265;-54
2022/08/26 07:20:27;;;;;;;;;;;;;;;;;;2196159;67;1261;-54
2022/08/26 07:23:00;;;;;;;;;;;;;;;;;;2195856;67;1267;-54
2022/08/26 07:25:33;;;;;;;;;;;;;;;;;;2196159;67;1298;-54
2022/08/26 07:28:10;;;;;;;;;;;;;;;;;;2195969;67;1279;-55
2022/08/26 07:30:43;;;;;;;;;;;;;;;;;;2196315;67;1196;-55
2022/08/26 07:33:16;;;;;;;;;;;;;;;;;;2193188;67;1922;-55
2022/08/26 07:35:50;;;;;;;;;;;;;;;;;;2196103;67;1221;-55
2022/08/26 07:38:23;;;;;;;;;;;;;;;;;;2196259;59;1706;-59
2022/08/26 07:40:57;;;;;;;;;;;;;;;;;;2196143;67;1042;-55
2022/08/26 07:43:33;;;;;;;;;;;;;;;;;;2195738;59;1250;-56
2022/08/26 07:46:06;;;;;;;;;;;;;;;;;;2196194;67;1387;-56
2022/08/26 07:48:40;;;;;;;;;;;;;;;;;;2195839;67;1029;-53
2022/08/26 07:51:13;;;;;;;;;;;;;;;;;;2196075;67;1073;-57
2022/08/26 07:53:47;;;;;;;;;;;;;;;;;;2195876;67;1930;-53
2022/08/26 07:56:21;;;;;;;;;;;;;;;;;;2195790;67;1758;-56
2022/08/26 07:58:57;;;;;;;;;;;;;;;;;;2195772;67;1145;-55
2022/08/26 08:01:31;;;;;;;;;;;;;;;;;;2195121;59;1610;-55
2022/08/26 08:04:05;;;;;;;;;;;;;;;;;;2195688;59;1383;-56
2022/08/26 08:06:38;;;;;;;;;;;;;;;;;;2195703;67;1456;-56
2022/08/26 08:09:12;;;;;;;;;;;;;;;;;;2195360;67;1140;-57
2022/08/26 08:11:46;;;;;;;;;;;;;;;;;;2195552;59;1195;-58
2022/08/26 08:14:22;;;;;;;;;;;;;;;;;;2195721;67;1988;-56
2022/08/26 08:16:55;;;;;;;;;;;;;;;;;;2195603;59;1394;-54
2022/08/26 08:19:28;;;;;;;;;;;;;;;;;;2195420;67;1254;-55
2022/08/26 08:22:03;;;;;;;;;;;;;;;;;;2195255;67;1214;-56
2022/08/26 08:24:37;;;;;;;;;;;;;;;;;;2195161;67;1236;-55
2022/08/26 08:27:10;;;;;;;;;;;;;;;;;;2195570;67;1236;-54
2022/08/26 08:29:46;;;;;;;;;;;;;;;;;;2195383;67;1191;-55
2022/08/26 08:32:19;;;;;;;;;;;;;;;;;;2195574;67;1984;-54
2022/08/26 08:34:53;;;;;;;;;;;;;;;;;;2195256;67;1318;-55
2022/08/26 08:37:26;;;;;;;;;;;;;;;;;;2195458;59;1726;-55
2022/08/26 08:40:00;;;;;;;;;;;;;;;;;;2195160;67;1282;-54
2022/08/26 08:42:38;;;;;;;;;;;;;;;;;;2195233;67;1242;-54
2022/08/26 08:45:17;;;;;;;;;;;;;;;;;;2196456;67;1259;-55
2022/08/26 08:47:52;;;;;;;;;;;;;;;;;;2195924;67;1192;-54
2022/08/26 08:50:28;;;;;;;;;;;;;;;;;;2195982;67;1215;-56
2022/08/26 08:53:10;;;;;;;;;;;;;;;;;;2196016;59;1936;-54
2022/08/26 08:55:49;;;;;;;;;;;;;;;;;;2195753;60;1258;-54
2022/08/26 08:58:27;;;;;;;;;;;;;;;;;;2195887;67;1198;-54
2022/08/26 09:01:04;;;;;;;;;;;;;;;;;;2195048;67;1768;-54
2022/08/26 09:03:45;;;;;;;;;;;;;;;;;;2195726;59;2089;-56
2022/08/26 09:06:21;;;;;;;;;;;;;;;;;;2197145;59;985;-55
2022/08/26 09:08:54;;;;;;;;;;;;;;;;;;2195492;67;1192;-56
2022/08/26 09:11:27;;;;;;;;;;;;;;;;;;2195726;59;1278;-57
2022/08/26 09:14:01;;;;;;;;;;;;;;;;;;2195611;67;1940;-55
2022/08/26 09:16:42;;;;;;;;;;;;;;;;;;2196014;67;1264;-57
2022/08/26 09:19:19;;;;;;;;;;;;;;;;;;2195628;67;1098;-58
2022/08/26 09:21:56;;;;;;;;;;;;;;;;;;2194928;67;1125;-57
2022/08/26 09:24:31;;;;;;;;;;;;;;;;;;2192724;67;1507;-55
2022/08/26 09:27:04;;;;;;;;;;;;;;;;;;2195713;67;1588;-56
2022/08/26 09:29:43;;;;;;;;;;;;;;;;;;2195631;67;1118;-56
2022/08/26 09:32:22;;;;;;;;;;;;;;;;;;2195491;67;1117;-56
2022/08/26 09:34:58;;;;;;;;;;;;;;;;;;2195328;67;1942;-60
2022/08/26 09:37:39;;;;;;;;;;;;;;;;;;2196160;59;1753;-59
2022/08/26 09:40:26;;;;;;;;;;;;;;;;;;2195153;67;1264;-55
2022/08/26 09:43:15;;;;;;;;;;;;;;;;;;2195563;59;1271;-54
2022/08/26 09:45:53;;;;;;;;;;;;;;;;;;2195582;67;1597;-55
2022/08/26 09:48:31;;;;;;;;;;;;;;;;;;2199564;67;1615;-54
2022/08/26 09:51:06;;;;;;;;;;;;;;;;;;2195323;67;1154;-57
2022/08/26 09:53:52;;;;;;;;;;;;;;;;;;2195670;67;1940;-57
2022/08/26 09:56:27;;;;;;;;;;;;;;;;;;2194860;67;1269;-54
2022/08/26 09:59:01;;;;;;;;;;;;;;;;;;2194914;67;1267;-55
2022/08/26 10:01:35;;;;;;;;;;;;;;;;;;2194510;59;1712;-56
2022/08/26 10:04:13;;;;;;;;;;;;;;;;;;2194958;59;1653;-56
2022/08/26 10:06:56;;;;;;;;;;;;;;;;;;2195134;59;1161;-55
2022/08/26 10:09:30;;;;;;;;;;;;;;;;;;2195575;59;1259;-56
2022/08/26 10:12:05;;;;;;;;;;;;;;;;;;2195193;59;1316;-56
2022/08/26 10:14:40;;;;;;;;;;;;;;;;;;2195576;67;1936;-57
2022/08/26 10:17:18;;;;;;;;;;;;;;;;;;2195282;67;1159;-57
2022/08/26 10:19:58;;;;;;;;;;;;;;;;;;2195100;67;1270;-61
2022/08/26 10:22:36;;;;;;;;;;;;;;;;;;2192142;67;1633;-56
2022/08/26 10:25:10;;;;;;;;;;;;;;;;;;2194891;67;1191;-56
2022/08/26 10:27:47;;;;;;;;;;;;;;;;;;2195677;67;1171;-55
2022/08/26 10:30:21;;;;;;;;;;;;;;;;;;2195537;67;1214;-56
2022/08/26 10:32:58;;;;;;;;;;;;;;;;;;2195643;67;1262;-59
2022/08/26 10:35:35;;;;;;;;;;;;;;;;;;2196040;67;1220;-55
2022/08/26 10:38:10;;;;;;;;;;;;;;;;;;2195622;60;1827;-56
2022/08/26 10:40:49;;;;;;;;;;;;;;;;;;2195969;67;1191;-58
2022/08/26 10:43:24;;;;;;;;;;;;;;;;;;2195803;67;1291;-59
2022/08/26 10:46:00;;;;;;;;;;;;;;;;;;2196035;67;1235;-54
2022/08/26 10:48:36;;;;;;;;;;;;;;;;;;2195789;59;1348;-58
2022/08/26 10:51:13;;;;;;;;;;;;;;;;;;2195741;67;1161;-60
2022/08/26 10:53:49;;;;;;;;;;;;;;;;;;2195876;67;1988;-55
2022/08/26 10:56:29;;;;;;;;;;;;;;;;;;2195660;67;1215;-58
2022/08/26 10:59:06;;;;;;;;;;;;;;;;;;2195776;67;1251;-56
2022/08/26 11:01:45;;;;;;;;;;;;;;;;;;2195150;59;1710;-58
2022/08/26 11:04:23;;;;;;;;;;;;;;;;;;2195860;59;1653;-57
2022/08/26 11:07:11;;;;;;;;;;;;;;;;;;2195680;67;1113;-58
2022/08/26 11:09:47;;;;;;;;;;;;;;;;;;2194916;67;2330;-54
2022/08/26 11:12:46;;;;;;;;;;;;;;;;;;2195772;59;1232;-57
2022/08/26 11:15:37;;;;;;;;;;;;;;;;;;2197623;67;1932;-55
2022/08/26 11:18:11;;;;;;;;;;;;;;;;;;2195729;67;1061;-59
2022/08/26 11:20:45;;;;;;;;;;;;;;;;;;2195135;67;1319;-54
2022/08/26 11:23:37;;;;;;;;;;;;;;;;;;2195972;67;1033;-58
2022/08/26 11:26:17;;;;;;;;;;;;;;;;;;2195475;67;1257;-56
2022/08/26 11:28:52;;;;;;;;;;;;;;;;;;2195501;67;1192;-55
2022/08/26 11:31:40;;;;;;;;;;;;;;;;;;2195580;67;1265;-55
2022/08/26 11:34:14;;;;;;;;;;;;;;;;;;2195428;67;1932;-57
2022/08/26 11:36:58;;;;;;;;;;;;;;;;;;2194842;67;1121;-57
2022/08/26 11:39:35;;;;;;;;;;;;;;;;;;2195729;59;2078;-59
2022/08/26 11:42:23;;;;;;;;;;;;;;;;;;2195434;67;1515;-58
2022/08/26 11:44:56;;;;;;;;;;;;;;;;;;2195613;59;1339;-56
2022/08/26 11:47:31;;;;;;;;;;;;;;;;;;2195785;67;1076;-56
2022/08/26 11:50:08;;;;;;;;;;;;;;;;;;2195320;67;1440;-56
2022/08/26 11:52:42;;;;;;;;;;;;;;;;;;2195813;67;1161;-56
2022/08/26 11:55:16;;;;;;;;;;;;;;;;;;2195654;59;1975;-56
2022/08/26 11:57:54;;;;;;;;;;;;;;;;;;2197366;67;1239;-58
2022/08/26 12:00:29;;;;;;;;;;;;;;;;;;2195609;67;1157;-57
2022/08/26 12:03:03;;;;;;;;;;;;;;;;;;2195790;59;1713;-58
2022/08/26 12:05:38;;;;;;;;;;;;;;;;;;2195720;59;1560;-54
2022/08/26 12:08:12;;;;;;;;;;;;;;;;;;2196044;67;1147;-57
2022/08/26 12:10:47;;;;;;;;;;;;;;;;;;2196712;59;1217;-57
2022/08/26 12:13:25;;;;;;;;;;;;;;;;;;2196439;67;1211;-54
2022/08/26 12:16:00;;;;;;;;;;;;;;;;;;2196891;67;1910;-57
2022/08/26 12:18:34;;;;;;;;;;;;;;;;;;2196265;67;1271;-56
2022/08/26 12:21:21;;;;;;;;;;;;;;;;;;2195908;59;1152;-55
2022/08/26 12:23:55;;;;;;;;;;;;;;;;;;2195742;67;1195;-54
2022/08/26 12:26:30;;;;;;;;;;;;;;;;;;2196213;67;1252;-55
2022/08/26 12:29:07;;;;;;;;;;;;;;;;;;2194233;67;1827;-56
2022/08/26 12:31:44;;;;;;;;;;;;;;;;;;2196195;67;1235;-54
2022/08/26 12:34:18;;;;;;;;;;;;;;;;;;2195640;67;1930;-56
2022/08/26 12:36:53;;;;;;;;;;;;;;;;;;2196136;67;1140;-54
2022/08/26 12:39:28;;;;;;;;;;;;;;;;;;2196060;59;1736;-56
2022/08/26 12:42:02;;;;;;;;;;;;;;;;;;2196031;67;1220;-59
2022/08/26 12:44:43;;;;;;;;;;;;;;;;;;2195764;59;1308;-55
2022/08/26 12:47:23;;;;;;;;;;;;;;;;;;2196845;67;1116;-55
2022/08/26 12:50:01;;;;;;;;;;;;;;;;;;2195462;67;1234;-56
2022/08/26 12:52:36;;;;;;;;;;;;;;;;;;2195222;67;1224;-54
2022/08/26 12:55:20;;;;;;;;;;;;;;;;;;2195409;67;1986;-59
2022/08/26 12:58:11;;;;;;;;;;;;;;;;;;2195595;67;1065;-56
2022/08/26 13:00:47;;;;;;;;;;;;;;;;;;2195239;67;1216;-59
2022/08/26 13:03:31;;;;;;;;;;;;;;;;;;2195503;59;1752;-56
2022/08/26 13:06:19;;;;;;;;;;;;;;;;;;2195558;59;1172;-55
2022/08/26 13:08:53;;;;;;;;;;;;;;;;;;2195358;67;1199;-55
2022/08/26 13:11:28;;;;;;;;;;;;;;;;;;2196013;59;2237;-55
2022/08/26 13:14:03;;;;;;;;;;;;;;;;;;2195345;67;1931;-55
2022/08/26 13:16:40;;;;;;;;;;;;;;;;;;2195480;67;1263;-55
2022/08/26 13:19:14;;;;;;;;;;;;;;;;;;2195649;67;1167;-54
2022/08/26 13:21:49;;;;;;;;;;;;;;;;;;2194932;67;1134;-58
2022/08/26 13:24:24;;;;;;;;;;;;;;;;;;2195340;67;1198;-55
2022/08/26 13:26:57;;;;;;;;;;;;;;;;;;2195138;67;1271;-57
2022/08/26 13:29:30;;;;;;;;;;;;;;;;;;2195373;67;1227;-55
2022/08/26 13:32:07;;;;;;;;;;;;;;;;;;2195204;67;1695;-56
2022/08/26 13:34:41;;;;;;;;;;;;;;;;;;2195089;67;1934;-59
2022/08/26 13:37:14;;;;;;;;;;;;;;;;;;2195333;59;1691;-60
2022/08/26 13:39:47;;;;;;;;;;;;;;;;;;2194900;67;1522;-55
2022/08/26 13:42:20;;;;;;;;;;;;;;;;;;2195809;67;1067;-57
2022/08/26 13:44:56;;;;;;;;;;;;;;;;;;2195591;59;1186;-56
2022/08/26 13:47:32;;;;;;;;;;;;;;;;;;2196042;67;1098;-55
2022/08/26 13:50:06;;;;;;;;;;;;;;;;;;2195834;67;1212;-57
2022/08/26 13:52:39;;;;;;;;;;;;;;;;;;2195732;67;1248;-56
2022/08/26 13:55:12;;;;;;;;;;;;;;;;;;2195700;67;1991;-56
2022/08/26 13:57:45;;;;;;;;;;;;;;;;;;2195789;67;1247;-55
2022/08/26 14:00:19;;;;;;;;;;;;;;;;;;2195930;67;1090;-57
2022/08/26 14:02:55;;;;;;;;;;;;;;;;;;2195616;59;1768;-59
2022/08/26 14:05:28;;;;;;;;;;;;;;;;;;2196068;59;1243;-57
2022/08/26 14:08:02;;;;;;;;;;;;;;;;;;2195709;60;1686;-56
2022/08/26 14:10:35;;;;;;;;;;;;;;;;;;2196305;59;1322;-56
2022/08/26 14:13:08;;;;;;;;;;;;;;;;;;2195731;67;1168;-64
2022/08/26 14:15:42;;;;;;;;;;;;;;;;;;2195928;67;1983;-55
2022/08/26 14:18:19;;;;;;;;;;;;;;;;;;2196393;67;1104;-56
2022/08/26 14:20:53;;;;;;;;;;;;;;;;;;2195428;67;1199;-55
2022/08/26 14:23:27;;;;;;;;;;;;;;;;;;2196417;67;1240;-57
2022/08/26 14:26:01;;;;;;;;;;;;;;;;;;2195584;67;1131;-57
2022/08/26 14:28:34;;;;;;;;;;;;;;;;;;2195865;67;1123;-56
2022/08/26 14:31:08;;;;;;;;;;;;;;;;;;2195723;67;1211;-54
2022/08/26 14:33:44;;;;;;;;;;;;;;;;;;2195649;67;1226;-56
2022/08/26 14:36:30;;;;;;;;;;;;;;;;;;2195522;67;1976;-56
2022/08/26 14:39:05;;;;;;;;;;;;;;;;;;2195679;67;1784;-56
2022/08/26 14:41:42;;;;;;;;;;;;;;;;;;2196028;67;1199;-54
2022/08/26 14:44:16;;;;;;;;;;;;;;;;;;2195882;59;1374;-55
2022/08/26 14:46:51;;;;;;;;;;;;;;;;;;2196123;67;1071;-58
2022/08/26 14:49:27;;;;;;;;;;;;;;;;;;2196517;67;1177;-55
2022/08/26 14:52:00;;;;;;;;;;;;;;;;;;2195891;67;1252;-55
2022/08/26 14:54:31;;;;;;;;;;;;;;;;;;2196462;67;1251;-54
2022/08/26 14:57:05;;;;;;;;;;;;;;;;;;2195796;67;2003;-57
2022/08/26 14:59:40;;;;;;;;;;;;;;;;;;2195897;67;1087;-54
2022/08/26 15:02:15;;;;;;;;;;;;;;;;;;2195865;59;1578;-54
2022/08/26 15:15:31;;;;;;;;;;;;;;;;;;2293313;54;2214;-62
2022/08/26 15:18:05;;;;;;;;;;;;;;;;;;2190900;59;1531;-64
2022/08/26 15:20:38;;;;;;;;;;;;;;;;;;2188195;59;1279;-61
2022/08/26 15:23:11;;;;;;;;;;;;;;;;;;2188544;67;1189;-65
2022/08/26 15:25:44;;;;;;;;;;;;;;;;;;2189326;59;1175;-64
2022/08/26 15:28:18;;;;;;;;;;;;;;;;;;2188341;67;1268;-64
2022/08/26 15:30:53;;;;;;;;;;;;;;;;;;2188022;67;1125;-64
2022/08/26 15:33:26;;;;;;;;;;;;;;;;;;2188623;67;1210;-63
2022/08/26 15:36:00;;;;;;;;;;;;;;;;;;2187282;67;1938;-64
2022/08/26 15:38:34;;;;;;;;;;;;;;;;;;2187967;67;1655;-64
2022/08/26 15:41:08;;;;;;;;;;;;;;;;;;2187529;67;1070;-63
2022/08/26 15:43:41;;;;;;;;;;;;;;;;;;2187993;67;1299;-64
2022/08/26 15:46:23;;;;;;;;;;;;;;;;;;2188514;67;1247;-64
2022/08/26 15:48:56;;;;;;;;;;;;;;;;;;2188069;67;1077;-64
2022/08/26 15:51:30;;;;;;;;;;;;;;;;;;2190021;59;1292;-64
2022/08/26 15:54:04;;;;;;;;;;;;;;;;;;2188139;67;1197;-63
2022/08/26 15:56:38;;;;;;;;;;;;;;;;;;2187805;67;1973;-63
2022/08/26 15:59:12;;;;;;;;;;;;;;;;;;2188294;67;1260;-63
2022/08/26 16:01:48;;;;;;;;;;;;;;;;;;2187849;60;1627;-64
2022/08/26 16:04:21;;;;;;;;;;;;;;;;;;2187834;67;1215;-64
2022/08/26 16:06:54;;;;;;;;;;;;;;;;;;2187784;67;1133;-64
2022/08/26 16:09:29;;;;;;;;;;;;;;;;;;2188172;67;1212;-64
2022/08/26 16:12:02;;;;;;;;;;;;;;;;;;2187879;67;1315;-64
2022/08/26 16:14:35;;;;;;;;;;;;;;;;;;2187938;59;1214;-64
2022/08/26 16:17:11;;;;;;;;;;;;;;;;;;2188094;67;1944;-63
2022/08/26 16:19:44;;;;;;;;;;;;;;;;;;2187863;67;1191;-62
2022/08/26 16:22:17;;;;;;;;;;;;;;;;;;2188318;67;1104;-64
2022/08/26 16:24:50;;;;;;;;;;;;;;;;;;2187821;67;1241;-64
2022/08/26 16:27:23;;;;;;;;;;;;;;;;;;2188186;67;1164;-64
2022/08/26 16:29:57;;;;;;;;;;;;;;;;;;2187961;67;1267;-64
2022/08/26 16:32:32;;;;;;;;;;;;;;;;;;2188071;67;1184;-64
2022/08/26 16:35:06;;;;;;;;;;;;;;;;;;2187344;67;1462;-64
2022/08/26 16:37:39;;;;;;;;;;;;;;;;;;2187832;59;2012;-64
2022/08/26 16:40:12;;;;;;;;;;;;;;;;;;2187817;67;1155;-64
2022/08/26 16:42:45;;;;;;;;;;;;;;;;;;2188122;59;1345;-63
2022/08/26 16:45:19;;;;;;;;;;;;;;;;;;2188069;59;1469;-62
2022/08/26 16:47:55;;;;;;;;;;;;;;;;;;2188202;67;1274;-63
2022/08/26 16:50:28;;;;;;;;;;;;;;;;;;2187822;67;1207;-62
2022/08/26 16:53:02;;;;;;;;;;;;;;;;;;2188732;59;1172;-63
2022/08/26 16:55:35;;;;;;;;;;;;;;;;;;2187838;67;1994;-61
2022/08/26 16:58:08;;;;;;;;;;;;;;;;;;2188038;67;1143;-63
2022/08/26 17:00:41;;;;;;;;;;;;;;;;;;2187550;67;1187;-64
2022/08/26 17:03:17;;;;;;;;;;;;;;;;;;2188058;59;1592;-64
2022/08/26 17:05:50;;;;;;;;;;;;;;;;;;2187551;67;1282;-61
2022/08/26 17:08:23;;;;;;;;;;;;;;;;;;2187966;67;1162;-63
2022/08/26 17:10:56;;;;;;;;;;;;;;;;;;2187970;59;1204;-64
2022/08/26 17:13:30;;;;;;;;;;;;;;;;;;2187541;67;1082;-63
2022/08/26 17:16:04;;;;;;;;;;;;;;;;;;2187638;59;1993;-64
2022/08/26 17:18:39;;;;;;;;;;;;;;;;;;2187487;67;1194;-61
2022/08/26 17:21:14;;;;;;;;;;;;;;;;;;2187860;67;1144;-62
2022/08/26 17:23:47;;;;;;;;;;;;;;;;;;2187566;67;1160;-61
2022/08/26 17:26:20;;;;;;;;;;;;;;;;;;2187675;67;1223;-62
2022/08/26 17:28:54;;;;;;;;;;;;;;;;;;2187123;67;1243;-64
2022/08/26 17:31:27;;;;;;;;;;;;;;;;;;2187468;67;1173;-63
2022/08/26 17:34:03;;;;;;;;;;;;;;;;;;2187222;67;1144;-64
2022/08/26 17:36:36;;;;;;;;;;;;;;;;;;2187404;67;1934;-62
2022/08/26 17:39:09;;;;;;;;;;;;;;;;;;2187429;67;1873;-63
2022/08/26 17:41:43;;;;;;;;;;;;;;;;;;2187410;67;1258;-61
2022/08/26 17:44:16;;;;;;;;;;;;;;;;;;2187404;59;1259;-63
2022/08/26 17:46:49;;;;;;;;;;;;;;;;;;2187249;67;1095;-62
2022/08/26 17:49:26;;;;;;;;;;;;;;;;;;2187165;67;1181;-63
2022/08/26 17:52:00;;;;;;;;;;;;;;;;;;2187006;67;1266;-62
2022/08/26 17:54:33;;;;;;;;;;;;;;;;;;2187410;67;1271;-60
2022/08/26 17:57:06;;;;;;;;;;;;;;;;;;2187205;67;1933;-62
2022/08/26 17:59:40;;;;;;;;;;;;;;;;;;2187230;67;1176;-62
2022/08/26 18:02:13;;;;;;;;;;;;;;;;;;2187916;59;1655;-63
2022/08/26 18:04:49;;;;;;;;;;;;;;;;;;2187096;59;1282;-63
2022/08/26 18:07:22;;;;;;;;;;;;;;;;;;2187606;67;1199;-62
2022/08/26 18:09:56;;;;;;;;;;;;;;;;;;2187140;67;1573;-64
2022/08/26 18:12:30;;;;;;;;;;;;;;;;;;2187727;59;1162;-64
2022/08/26 18:15:03;;;;;;;;;;;;;;;;;;2187210;59;1668;-62
2022/08/26 18:17:37;;;;;;;;;;;;;;;;;;2187231;67;1930;-62
2022/08/26 18:20:15;;;;;;;;;;;;;;;;;;2187443;67;1138;-64
2022/08/26 18:22:49;;;;;;;;;;;;;;;;;;2187201;67;1138;-63
2022/08/26 18:25:22;;;;;;;;;;;;;;;;;;2186765;67;1208;-61
2022/08/26 18:27:55;;;;;;;;;;;;;;;;;;2187140;67;1191;-62